KLAX/LAX METAR and TAF weather

Enter ICAO airport designator
Station Type Date Time Source
KLAX METAR 2018/12/12 07:53 UTC NOAA

KLAX 120753Z 08005KT 9SM FEW014 13/11 A3008 RMK AO2 SLP183 T01330111 401940117


Station Type Date Time Source
KLAX Decoded METAR 2018/12/12 07:53 UTC NOAA

LOS ANGELES INTERNTL AIRPORT, CA, United States (KLAX) 33-56N 118-23W 46M
Dec 12, 2018 - 02:53 AM EST / 2018.12.12 0753 UTC
Wind: from the E (080 degrees) at 6 MPH (5 KT):0
Visibility: 9 mile(s):0
Sky conditions: mostly clear
Temperature: 55.9 F (13.3 C)
Dew Point: 52.0 F (11.1 C)
Relative Humidity: 86%
Pressure (altimeter): 30.08 in. Hg (1018 hPa)
ob: KLAX 120753Z 08005KT 9SM FEW014 13/11 A3008 RMK AO2 SLP183 T01330111 401940117
cycle: 8

Station Type Date Time Source
KLAX TAF 2018/12/12 06:30 UTC NOAA

TAF KLAX 120528Z 1206/1312 10004KT P6SM SCT150
FM122000 25010KT P6SM SKC
FM130300 25005KT P6SM SKC
FM130700 VRB03KT P6SM SKC


Example: see airport list